Time;durP1;ratioP1;P1;durP2;ratioP2;P2;SDS_P1;SDS_P2;PMS_P1;PMS_P2;Temp;Humidity;BMP_temperature;BMP_pressure;BME280_temperature;BME280_humidity;BME280_pressure;Samples;Min_cycle;Max_cycle;Signal;HPM_P1;HPM_P2
2022/05/22 01:32:50;;;;;;;10.88;2.17;;;;;;;;;;6366746;22;20015;-86
2022/05/22 06:28:52;;;;;;;8.95;1.88;;;;;;;;;;6343913;22;20466;-84
2022/05/22 06:31:55;;;;;;;15.88;4.28;;;;;;;;;;6323485;22;20014;-84
2022/05/22 06:34:41;;;;;;;12.02;3.10;;;;;;;;;;6308854;22;20050;-84
2022/05/22 06:37:33;;;;;;;7.97;2.25;;;;;;;;;;6321120;22;20041;-83
2022/05/22 06:40:37;;;;;;;9.80;1.95;;;;;;;;;;6237180;22;20028;-85
2022/05/22 06:44:07;;;;;;;10.65;2.25;;;;;;;;;;6224558;22;20118;-85
2022/05/22 06:47:04;;;;;;;6.57;1.70;;;;;;;;;;6175998;23;20516;-84
2022/05/22 06:49:51;;;;;;;11.30;2.10;;;;;;;;;;6192175;23;20357;-84
2022/05/22 06:52:33;;;;;;;7.05;2.10;;;;;;;;;;6211828;23;20396;-84
2022/05/22 06:55:27;;;;;;;8.60;1.95;;;;;;;;;;6211969;23;20028;-84
2022/05/22 06:58:33;;;;;;;6.32;1.60;;;;;;;;;;6211687;23;20084;-85
2022/05/22 07:01:49;;;;;;;7.47;2.40;;;;;;;;;;6177912;23;20024;-84
2022/05/22 07:05:05;;;;;;;7.15;1.42;;;;;;;;;;6197922;23;20051;-83
2022/05/22 07:07:55;;;;;;;6.70;1.60;;;;;;;;;;6185945;23;20063;-85
2022/05/22 07:13:59;;;;;;;3.88;1.55;;;;;;;;;;6200306;23;20056;-84
2022/05/22 07:17:10;;;;;;;9.30;1.70;;;;;;;;;;6232265;22;20028;-86
2022/05/22 07:20:21;;;;;;;10.38;1.80;;;;;;;;;;6240296;22;20353;-85
2022/05/22 07:24:12;;;;;;;8.23;1.92;;;;;;;;;;6318241;22;20025;-84
2022/05/22 07:27:44;;;;;;;8.35;2.25;;;;;;;;;;6182305;23;20044;-85
2022/05/22 07:30:35;;;;;;;9.65;1.70;;;;;;;;;;6206427;23;20059;-82
2022/05/22 07:43:22;;;;;;;7.07;1.90;;;;;;;;;;6189119;23;20024;-83
2022/05/22 07:46:13;;;;;;;8.07;1.70;;;;;;;;;;6185711;23;20107;-84
2022/05/22 07:48:49;;;;;;;8.52;1.92;;;;;;;;;;6221249;23;20361;-86
2022/05/22 07:52:45;;;;;;;6.90;1.45;;;;;;;;;;6219491;23;20020;-86
2022/05/22 08:00:55;;;;;;;7.47;1.63;;;;;;;;;;6219803;23;20138;-83
2022/05/22 08:03:49;;;;;;;6.50;1.42;;;;;;;;;;6213590;23;20024;-84
2022/05/22 08:06:43;;;;;;;8.80;1.98;;;;;;;;;;6217830;23;20035;-84
2022/05/22 08:09:43;;;;;;;5.45;1.30;;;;;;;;;;6205141;23;20025;-84
2022/05/22 08:12:17;;;;;;;7.03;1.42;;;;;;;;;;6251770;22;20028;-84
2022/05/22 08:14:45;;;;;;;6.57;1.48;;;;;;;;;;6250444;22;20110;-84
2022/05/22 08:17:21;;;;;;;8.20;1.88;;;;;;;;;;6276455;22;20027;-84
2022/05/22 08:20:16;;;;;;;5.32;1.90;;;;;;;;;;6277287;22;20058;-84
2022/05/22 08:23:01;;;;;;;3.45;1.27;;;;;;;;;;6244147;22;20019;-84
2022/05/22 08:25:59;;;;;;;8.95;1.45;;;;;;;;;;6278109;22;20045;-82
2022/05/22 08:28:29;;;;;;;4.85;1.38;;;;;;;;;;6314851;22;20022;-83
2022/05/22 08:31:11;;;;;;;4.68;1.38;;;;;;;;;;6339044;22;20101;-83
2022/05/22 08:33:59;;;;;;;7.55;1.95;;;;;;;;;;6317565;22;20462;-83
2022/05/22 08:36:29;;;;;;;4.55;1.20;;;;;;;;;;6338686;22;20067;-83
2022/05/22 08:38:57;;;;;;;4.78;1.10;;;;;;;;;;6338120;22;20097;-83
2022/05/22 08:41:33;;;;;;;7.15;1.70;;;;;;;;;;6366190;22;20018;-82
2022/05/22 08:44:31;;;;;;;4.93;1.20;;;;;;;;;;6306706;22;20107;-83
2022/05/22 08:47:04;;;;;;;7.35;1.30;;;;;;;;;;6277012;22;20034;-83
2022/05/22 08:49:56;;;;;;;7.50;1.02;;;;;;;;;;6367087;22;20475;-83
2022/05/22 08:52:54;;;;;;;4.68;1.27;;;;;;;;;;6326787;22;20018;-83
2022/05/22 08:58:59;;;;;;;3.20;1.40;;;;;;;;;;6360772;22;20029;-82
2022/05/22 09:02:15;;;;;;;7.07;1.45;;;;;;;;;;6344515;22;20581;-82
2022/05/22 09:05:01;;;;;;;6.60;1.30;;;;;;;;;;6304128;22;20064;-83
2022/05/22 09:08:18;;;;;;;11.02;1.88;;;;;;;;;;6367904;22;20029;-83
2022/05/22 09:11:24;;;;;;;7.10;1.30;;;;;;;;;;6307205;22;20516;-83
2022/05/22 09:14:11;;;;;;;6.03;1.60;;;;;;;;;;6343447;22;20014;-83
2022/05/22 09:17:14;;;;;;;5.20;1.60;;;;;;;;;;6321403;22;20118;-87
2022/05/22 09:20:19;;;;;;;9.85;2.30;;;;;;;;;;6313689;22;20018;-84
2022/05/22 09:26:10;;;;;;;5.43;1.98;;;;;;;;;;6336068;22;20030;-84
2022/05/22 09:29:11;;;;;;;7.07;1.67;;;;;;;;;;6286292;22;20634;-84
2022/05/22 09:32:21;;;;;;;5.55;1.33;;;;;;;;;;6322544;22;20022;-84
2022/05/22 09:35:47;;;;;;;4.07;0.98;;;;;;;;;;6325644;22;20006;-84
2022/05/22 09:38:47;;;;;;;3.00;1.03;;;;;;;;;;6311694;22;20040;-84
2022/05/22 09:41:31;;;;;;;4.50;1.38;;;;;;;;;;6319958;22;20248;-82
2022/05/22 09:44:39;;;;;;;4.88;1.45;;;;;;;;;;6346433;22;20006;-81
2022/05/22 09:47:21;;;;;;;6.00;1.17;;;;;;;;;;6349689;22;20535;-81
2022/05/22 09:50:06;;;;;;;3.35;1.23;;;;;;;;;;6373371;22;20595;-81
2022/05/22 09:53:02;;;;;;;5.30;1.30;;;;;;;;;;6373712;22;20018;-80
2022/05/22 09:55:51;;;;;;;5.50;1.60;;;;;;;;;;6365614;22;20018;-82
2022/05/22 09:58:37;;;;;;;4.95;0.98;;;;;;;;;;6372664;22;20022;-82
2022/05/22 10:01:07;;;;;;;5.45;1.25;;;;;;;;;;6319580;22;20297;-82
2022/05/22 10:03:51;;;;;;;7.22;1.30;;;;;;;;;;6372594;22;20042;-83
2022/05/22 10:06:42;;;;;;;3.40;0.90;;;;;;;;;;6384736;22;20018;-83
2022/05/22 10:09:35;;;;;;;4.72;1.10;;;;;;;;;;6382616;22;20759;-83
2022/05/22 10:12:09;;;;;;;5.45;1.33;;;;;;;;;;6353110;22;20205;-83
2022/05/22 10:15:02;;;;;;;5.60;1.40;;;;;;;;;;6348693;22;20075;-83
2022/05/22 10:17:42;;;;;;;5.03;1.33;;;;;;;;;;6353877;22;20022;-83
2022/05/22 10:20:27;;;;;;;3.60;1.00;;;;;;;;;;6353043;22;20044;-83
2022/05/22 10:23:25;;;;;;;7.93;1.48;;;;;;;;;;6376980;22;20142;-83
2022/05/22 10:26:37;;;;;;;4.50;1.00;;;;;;;;;;6371969;22;20401;-87
2022/05/22 10:30:14;;;;;;;5.63;1.20;;;;;;;;;;6321734;22;20010;-86
2022/05/22 10:33:01;;;;;;;76.70;5.70;;;;;;;;;;6241450;23;20035;-86
2022/05/22 10:35:40;;;;;;;18.40;2.28;;;;;;;;;;6185499;23;20554;-85
2022/05/22 10:38:19;;;;;;;5.55;0.98;;;;;;;;;;6232230;23;20152;-88
2022/05/22 10:43:47;;;;;;;4.07;1.25;;;;;;;;;;6241871;23;20019;-84
2022/05/22 10:46:15;;;;;;;14.45;2.13;;;;;;;;;;6180461;23;20073;-83
2022/05/22 10:48:54;;;;;;;3.28;1.15;;;;;;;;;;6214751;23;20052;-83
2022/05/22 10:51:44;;;;;;;3.08;1.08;;;;;;;;;;6219370;23;20179;-83
2022/05/22 10:54:42;;;;;;;4.50;0.82;;;;;;;;;;6204287;23;20028;-86
2022/05/22 10:57:28;;;;;;;2.53;0.60;;;;;;;;;;6206964;23;20114;-82
2022/05/22 10:59:58;;;;;;;3.78;0.88;;;;;;;;;;6240327;23;20074;-83
2022/05/22 11:02:33;;;;;;;7.45;1.00;;;;;;;;;;6241144;23;20048;-82
2022/05/22 11:05:01;;;;;;;9.70;1.20;;;;;;;;;;6215705;23;20056;-85
2022/05/22 11:07:29;;;;;;;5.00;0.88;;;;;;;;;;6238974;22;20057;-85
2022/05/22 11:10:09;;;;;;;10.35;1.10;;;;;;;;;;6340610;22;20097;-85
2022/05/22 11:12:37;;;;;;;5.13;1.25;;;;;;;;;;6330337;22;20022;-85
2022/05/22 11:15:25;;;;;;;11.85;1.40;;;;;;;;;;6367612;22;20036;-82
2022/05/22 11:18:21;;;;;;;4.65;0.85;;;;;;;;;;6368893;22;20403;-85
2022/05/22 11:21:03;;;;;;;4.00;1.20;;;;;;;;;;6369032;22;20074;-83
2022/05/22 11:24:13;;;;;;;2.85;0.80;;;;;;;;;;6368316;22;20170;-82
2022/05/22 11:26:59;;;;;;;3.08;0.75;;;;;;;;;;6367994;22;20046;-83
2022/05/22 11:29:35;;;;;;;4.15;0.90;;;;;;;;;;6303794;22;20083;-83
2022/05/22 11:32:30;;;;;;;4.35;1.25;;;;;;;;;;6340746;22;20052;-83
2022/05/22 11:34:57;;;;;;;9.93;1.10;;;;;;;;;;6304525;22;20315;-86
2022/05/22 11:37:38;;;;;;;8.00;1.20;;;;;;;;;;6306321;22;20086;-87
2022/05/22 11:40:26;;;;;;;30.65;1.85;;;;;;;;;;6360082;22;20442;-85
2022/05/22 11:43:21;;;;;;;5.18;1.17;;;;;;;;;;6341049;22;20015;-82
2022/05/22 11:46:00;;;;;;;2.45;0.80;;;;;;;;;;6367801;22;20018;-83
2022/05/22 11:49:19;;;;;;;5.20;1.40;;;;;;;;;;6340674;22;20089;-82
2022/05/22 11:52:05;;;;;;;2.42;0.85;;;;;;;;;;6368033;22;20018;-82
2022/05/22 11:54:51;;;;;;;4.45;1.00;;;;;;;;;;6368499;22;20022;-82
2022/05/22 11:57:40;;;;;;;5.68;1.05;;;;;;;;;;6368650;22;20037;-82
2022/05/22 12:00:20;;;;;;;2.55;0.90;;;;;;;;;;6339772;22;20474;-82
2022/05/22 12:03:15;;;;;;;3.72;0.95;;;;;;;;;;6341192;22;20051;-82
2022/05/22 12:06:02;;;;;;;2.47;0.80;;;;;;;;;;6368855;22;20030;-82
2022/05/22 12:08:37;;;;;;;3.45;1.00;;;;;;;;;;6368119;22;20071;-82
2022/05/22 12:11:17;;;;;;;3.92;0.95;;;;;;;;;;6342360;22;20022;-81
2022/05/22 12:14:03;;;;;;;3.72;0.80;;;;;;;;;;6367927;22;20014;-83
2022/05/22 12:16:48;;;;;;;5.43;1.00;;;;;;;;;;6329956;22;20128;-83
2022/05/22 12:19:41;;;;;;;6.28;0.93;;;;;;;;;;6340851;22;20103;-83
2022/05/22 12:22:17;;;;;;;2.28;0.75;;;;;;;;;;6368051;22;20015;-84
2022/05/22 12:25:11;;;;;;;4.07;1.10;;;;;;;;;;6360599;22;20018;-83
2022/05/22 12:27:44;;;;;;;6.15;1.20;;;;;;;;;;6315719;22;20026;-83
2022/05/22 12:30:31;;;;;;;3.30;1.25;;;;;;;;;;6304114;22;20113;-83
2022/05/22 12:33:17;;;;;;;3.17;1.23;;;;;;;;;;6300871;22;20026;-83
2022/05/22 12:36:12;;;;;;;;;;;;;;;;;;6346874;22;20021;-84
2022/05/22 12:38:51;;;;;;;3.33;0.70;;;;;;;;;;6328847;22;20036;-83
2022/05/22 12:41:36;;;;;;;3.63;0.90;;;;;;;;;;6329564;22;20026;-83
2022/05/22 12:44:07;;;;;;;4.88;1.60;;;;;;;;;;6314287;22;20017;-83
2022/05/22 12:46:37;;;;;;;3.45;0.90;;;;;;;;;;6367376;22;20570;-83
2022/05/22 12:49:23;;;;;;;2.50;0.70;;;;;;;;;;6303395;22;20075;-83
2022/05/22 12:51:57;;;;;;;4.20;0.93;;;;;;;;;;6367209;22;20020;-83
2022/05/22 12:54:28;;;;;;;2.28;0.90;;;;;;;;;;6314081;22;20018;-83
2022/05/22 12:57:12;;;;;;;2.67;0.73;;;;;;;;;;6368033;22;20099;-84
2022/05/22 12:59:53;;;;;;;2.75;0.80;;;;;;;;;;6303130;22;20022;-84
2022/05/22 13:02:43;;;;;;;3.35;0.80;;;;;;;;;;6341050;22;20093;-84
2022/05/22 13:05:16;;;;;;;3.60;0.85;;;;;;;;;;6368812;22;20541;-83
2022/05/22 13:07:45;;;;;;;2.38;0.90;;;;;;;;;;6279409;22;20434;-83
2022/05/22 13:10:23;;;;;;;2.45;0.80;;;;;;;;;;6341054;22;20018;-83
2022/05/22 13:13:25;;;;;;;2.15;0.80;;;;;;;;;;6369356;22;20073;-84
2022/05/22 13:16:00;;;;;;;3.58;1.00;;;;;;;;;;6368121;22;20026;-83
2022/05/22 13:21:40;;;;;;;3.10;0.80;;;;;;;;;;6341501;22;20029;-83
2022/05/22 13:24:33;;;;;;;4.80;1.67;;;;;;;;;;6330611;22;20105;-84
2022/05/22 13:27:05;;;;;;;2.83;0.88;;;;;;;;;;6278873;22;20022;-83
2022/05/22 13:29:36;;;;;;;7.57;1.40;;;;;;;;;;6341083;22;20081;-83
2022/05/22 13:32:14;;;;;;;2.72;1.10;;;;;;;;;;6341760;22;20018;-82
2022/05/22 13:34:53;;;;;;;4.45;1.40;;;;;;;;;;6304314;22;20033;-82
2022/05/22 13:37:30;;;;;;;2.38;0.82;;;;;;;;;;6367849;22;20571;-82
2022/05/22 13:40:08;;;;;;;3.85;1.08;;;;;;;;;;6368076;22;20029;-82
2022/05/22 13:43:08;;;;;;;3.72;1.02;;;;;;;;;;6340906;22;20064;-83
2022/05/22 13:45:54;;;;;;;5.75;2.10;;;;;;;;;;6367798;22;20022;-83
2022/05/22 13:48:50;;;;;;;5.40;1.20;;;;;;;;;;6368902;22;20734;-82
2022/05/22 13:54:51;;;;;;;5.70;1.80;;;;;;;;;;6370155;22;20018;-84
2022/05/22 13:57:28;;;;;;;3.25;1.17;;;;;;;;;;6342430;22;20141;-84
2022/05/22 14:00:20;;;;;;;2.45;0.90;;;;;;;;;;6314944;22;20529;-83
2022/05/22 14:03:01;;;;;;;3.60;0.80;;;;;;;;;;6370517;22;20014;-83
2022/05/22 14:05:38;;;;;;;3.08;0.70;;;;;;;;;;6369416;22;20406;-83
2022/05/22 14:08:35;;;;;;;4.05;0.85;;;;;;;;;;6330863;22;20101;-83
2022/05/22 14:11:09;;;;;;;2.17;0.60;;;;;;;;;;6342018;22;20022;-83
2022/05/22 14:13:48;;;;;;;3.95;0.73;;;;;;;;;;6316278;22;20089;-82
2022/05/22 14:16:26;;;;;;;2.25;0.73;;;;;;;;;;6368727;22;20339;-82
2022/05/22 14:19:10;;;;;;;2.45;0.75;;;;;;;;;;6316477;22;20018;-83
2022/05/22 14:21:43;;;;;;;5.88;1.10;;;;;;;;;;6330684;22;20022;-84
2022/05/22 14:27:33;;;;;;;2.55;0.88;;;;;;;;;;6370362;22;20022;-83
2022/05/22 14:30:31;;;;;;;4.13;0.90;;;;;;;;;;6369356;22;20109;-83
2022/05/22 14:33:20;;;;;;;3.28;0.93;;;;;;;;;;6370491;22;20147;-83
2022/05/22 14:36:14;;;;;;;2.67;0.88;;;;;;;;;;6315914;22;20022;-83
2022/05/22 14:38:45;;;;;;;4.22;0.90;;;;;;;;;;6342546;22;20318;-83
2022/05/22 14:41:22;;;;;;;3.38;0.90;;;;;;;;;;6370659;22;20048;-83
2022/05/22 14:44:01;;;;;;;6.53;1.05;;;;;;;;;;6341766;22;20109;-83
2022/05/22 14:46:46;;;;;;;3.40;0.90;;;;;;;;;;6369566;22;20018;-86
2022/05/22 14:49:49;;;;;;;4.47;1.00;;;;;;;;;;6370278;22;20013;-84
2022/05/22 14:52:36;;;;;;;5.25;1.10;;;;;;;;;;6369012;22;20019;-84
2022/05/22 14:55:51;;;;;;;3.30;1.15;;;;;;;;;;6304273;22;20053;-84
2022/05/22 14:58:55;;;;;;;2.38;0.90;;;;;;;;;;6315538;22;20117;-84
2022/05/22 15:02:13;;;;;;;3.10;0.95;;;;;;;;;;6319934;22;20034;-85
2022/05/22 15:05:08;;;;;;;2.35;0.80;;;;;;;;;;6359764;22;20093;-84
2022/05/22 15:08:01;;;;;;;4.18;1.20;;;;;;;;;;6298249;22;20737;-84
2022/05/22 15:11:44;;;;;;;3.95;1.00;;;;;;;;;;6297439;22;20678;-85
2022/05/22 15:15:05;;;;;;;4.07;1.05;;;;;;;;;;6273670;22;20520;-88
2022/05/22 15:42:28;;;;;;;6.00;0.73;;;;;;;;;;6179743;23;20055;-85
2022/05/22 15:45:13;;;;;;;3.55;0.80;;;;;;;;;;6098404;23;20030;-85
2022/05/22 15:51:25;;;;;;;3.28;0.73;;;;;;;;;;6081530;23;20057;-85
2022/05/22 15:53:53;;;;;;;4.72;0.75;;;;;;;;;;6080354;23;20038;-84
2022/05/22 15:56:23;;;;;;;3.05;0.80;;;;;;;;;;6090609;23;20112;-84
2022/05/22 15:58:52;;;;;;;2.97;0.90;;;;;;;;;;6121406;23;20090;-84
2022/05/22 16:01:27;;;;;;;4.63;0.82;;;;;;;;;;6093157;23;20097;-84
2022/05/22 16:04:20;;;;;;;2.92;0.65;;;;;;;;;;6116484;23;20022;-84
2022/05/22 16:06:50;;;;;;;5.35;1.42;;;;;;;;;;6125621;23;20072;-84
2022/05/22 16:10:03;;;;;;;5.03;1.15;;;;;;;;;;6134475;23;20100;-84
2022/05/22 16:12:36;;;;;;;1.88;0.80;;;;;;;;;;6121209;23;20039;-84
2022/05/22 16:15:08;;;;;;;3.80;1.10;;;;;;;;;;6096815;23;20025;-84
2022/05/22 16:18:10;;;;;;;3.47;0.98;;;;;;;;;;6129849;23;20059;-84
2022/05/22 16:20:45;;;;;;;5.72;1.00;;;;;;;;;;6145189;23;20028;-84
2022/05/22 16:23:38;;;;;;;6.10;1.13;;;;;;;;;;6210528;23;20051;-84
2022/05/22 16:26:21;;;;;;;3.55;0.90;;;;;;;;;;6215118;23;20034;-84
2022/05/22 16:28:55;;;;;;;4.53;1.67;;;;;;;;;;6191271;23;20039;-84
2022/05/22 16:31:33;;;;;;;5.72;2.45;;;;;;;;;;6206432;22;20032;-84
2022/05/22 16:34:02;;;;;;;5.57;1.70;;;;;;;;;;6271526;22;20093;-84
2022/05/22 16:36:31;;;;;;;5.22;1.70;;;;;;;;;;6338445;22;20060;-85
2022/05/22 16:39:42;;;;;;;2.42;1.17;;;;;;;;;;6329403;22;20022;-84
2022/05/22 16:42:13;;;;;;;4.03;1.30;;;;;;;;;;6341880;22;20093;-85
2022/05/22 16:44:42;;;;;;;3.22;1.10;;;;;;;;;;6303504;22;20102;-85
2022/05/22 16:53:29;;;;;;;2.78;0.85;;;;;;;;;;6368255;22;21016;-84
2022/05/22 16:56:09;;;;;;;4.45;0.98;;;;;;;;;;6280175;22;20037;-85
2022/05/22 16:58:42;;;;;;;2.38;1.20;;;;;;;;;;6304604;22;20026;-85
2022/05/22 17:01:11;;;;;;;4.07;1.10;;;;;;;;;;6303768;22;20076;-85
2022/05/22 17:03:42;;;;;;;2.40;0.80;;;;;;;;;;6368222;22;20021;-85
2022/05/22 17:06:37;;;;;;;;;;;;;;;;;;6346768;22;20026;-85
2022/05/22 17:09:08;;;;;;;2.67;1.00;;;;;;;;;;6339925;22;19922;-85
2022/05/22 17:11:55;;;;;;;5.28;1.30;;;;;;;;;;6341258;22;20022;-85
2022/05/22 17:17:34;;;;;;;3.42;1.20;;;;;;;;;;6340938;22;20484;-85
2022/05/22 17:20:01;;;;;;;4.95;1.30;;;;;;;;;;6314652;22;20117;-84
2022/05/22 17:22:34;;;;;;;3.50;1.13;;;;;;;;;;6341386;22;20018;-85
2022/05/22 17:25:12;;;;;;;2.95;1.25;;;;;;;;;;6340571;22;20014;-86
2022/05/22 17:27:47;;;;;;;3.35;1.02;;;;;;;;;;6317985;22;20033;-86
2022/05/22 17:31:19;;;;;;;5.22;1.10;;;;;;;;;;6345024;22;20358;-84
2022/05/22 17:34:29;;;;;;;3.55;1.30;;;;;;;;;;6353093;22;20044;-83
2022/05/22 17:37:24;;;;;;;2.53;0.95;;;;;;;;;;6305320;22;20079;-84
2022/05/22 17:40:49;;;;;;;5.55;1.05;;;;;;;;;;6358066;22;20030;-83
2022/05/22 17:43:18;;;;;;;4.93;1.10;;;;;;;;;;6317151;22;20442;-83
2022/05/22 17:45:51;;;;;;;4.40;1.77;;;;;;;;;;6368729;22;20015;-83
2022/05/22 17:48:25;;;;;;;6.63;1.10;;;;;;;;;;6370127;22;20101;-83
2022/05/22 17:50:57;;;;;;;6.65;2.28;;;;;;;;;;6372256;22;20022;-85
2022/05/22 17:53:26;;;;;;;5.03;1.17;;;;;;;;;;6372634;22;20050;-85
2022/05/22 17:56:19;;;;;;;4.40;1.05;;;;;;;;;;6375176;22;20380;-84
2022/05/22 17:58:53;;;;;;;2.40;1.17;;;;;;;;;;6373712;22;20018;-85
2022/05/22 18:01:26;;;;;;;5.82;1.10;;;;;;;;;;6305789;22;20022;-86
2022/05/22 18:03:58;;;;;;;1.52;0.70;;;;;;;;;;6342747;22;20125;-86
2022/05/22 18:06:41;;;;;;;3.03;1.20;;;;;;;;;;6334598;22;20034;-86
2022/05/22 18:09:33;;;;;;;2.40;1.05;;;;;;;;;;6341848;22;20018;-87
2022/05/22 18:19:08;;;;;;;6.88;1.20;;;;;;;;;;6360589;22;20026;-86
2022/05/22 18:22:24;;;;;;;4.32;1.30;;;;;;;;;;6297772;22;20092;-85
2022/05/22 18:25:50;;;;;;;6.22;1.20;;;;;;;;;;6305804;22;20030;-85
2022/05/22 18:28:51;;;;;;;4.57;1.30;;;;;;;;;;6322858;22;20029;-85
2022/05/22 18:31:19;;;;;;;4.32;1.17;;;;;;;;;;6346953;22;20354;-85
2022/05/22 18:33:57;;;;;;;2.83;1.10;;;;;;;;;;6375844;22;20445;-85
2022/05/22 18:36:28;;;;;;;2.97;1.15;;;;;;;;;;6373912;22;20082;-85
2022/05/22 18:39:25;;;;;;;5.38;1.30;;;;;;;;;;6371463;22;20021;-86
2022/05/22 18:42:09;;;;;;;3.75;1.60;;;;;;;;;;6368966;22;20026;-85
2022/05/22 18:45:05;;;;;;;3.58;1.35;;;;;;;;;;6310774;22;20071;-84
2022/05/22 18:48:15;;;;;;;2.92;1.00;;;;;;;;;;6324594;22;20043;-85
2022/05/22 18:51:26;;;;;;;3.15;1.25;;;;;;;;;;6277629;22;20074;-86
2022/05/22 18:54:21;;;;;;;4.10;1.30;;;;;;;;;;6262722;22;20020;-84
2022/05/22 18:58:40;;;;;;;4.25;1.40;;;;;;;;;;6157999;23;20025;-85
2022/05/22 19:03:17;;;;;;;5.85;1.35;;;;;;;;;;6194314;23;20012;-85
2022/05/22 19:07:24;;;;;;;5.93;1.67;;;;;;;;;;6187892;23;20277;-86
2022/05/22 19:11:34;;;;;;;3.65;1.23;;;;;;;;;;6139682;23;20402;-85
2022/05/22 19:14:17;;;;;;;3.85;1.30;;;;;;;;;;6116208;23;20036;-84
2022/05/22 19:17:39;;;;;;;4.32;1.23;;;;;;;;;;6115835;23;20060;-85
2022/05/22 19:21:48;;;;;;;3.72;1.10;;;;;;;;;;6114130;23;20057;-84
2022/05/22 19:24:31;;;;;;;2.45;1.00;;;;;;;;;;6150229;23;20032;-85
2022/05/22 19:27:19;;;;;;;3.20;1.38;;;;;;;;;;6123628;23;20057;-85
2022/05/22 19:29:49;;;;;;;2.88;1.20;;;;;;;;;;6209100;23;20055;-86
2022/05/22 19:32:26;;;;;;;2.90;1.58;;;;;;;;;;6211179;23;20024;-86
2022/05/22 20:08:09;;;;;;;4.22;1.48;;;;;;;;;;6351245;22;20469;-88
2022/05/22 20:10:37;;;;;;;5.18;1.40;;;;;;;;;;6312899;22;20757;-88
2022/05/22 20:13:08;;;;;;;3.55;1.30;;;;;;;;;;6315743;22;20015;-87
2022/05/22 20:15:37;;;;;;;6.30;1.90;;;;;;;;;;6278781;22;20329;-86
2022/05/22 20:18:09;;;;;;;4.05;1.42;;;;;;;;;;6277398;22;20022;-87
2022/05/22 20:20:37;;;;;;;3.45;1.40;;;;;;;;;;6288446;22;20046;-87
2022/05/22 20:23:06;;;;;;;5.85;1.70;;;;;;;;;;6313581;22;20026;-84
2022/05/22 20:25:41;;;;;;;4.07;1.52;;;;;;;;;;6302613;22;20813;-84
2022/05/22 20:28:13;;;;;;;4.75;1.75;;;;;;;;;;6313497;22;20019;-84
2022/05/22 20:30:46;;;;;;;4.82;1.40;;;;;;;;;;6314785;22;20019;-84
2022/05/22 20:33:26;;;;;;;5.78;2.22;;;;;;;;;;6278729;22;20054;-84
2022/05/22 20:35:53;;;;;;;4.55;1.70;;;;;;;;;;6313180;22;20041;-84
2022/05/22 20:38:22;;;;;;;8.73;1.75;;;;;;;;;;6277393;22;20023;-84
2022/05/22 20:41:13;;;;;;;4.57;1.40;;;;;;;;;;6313697;22;20018;-84
2022/05/22 20:43:53;;;;;;;4.57;1.60;;;;;;;;;;6313750;22;20025;-83
2022/05/22 20:46:23;;;;;;;4.75;1.38;;;;;;;;;;6276551;22;20027;-86
2022/05/22 20:48:57;;;;;;;2.78;1.60;;;;;;;;;;6278361;22;20042;-86
2022/05/22 20:51:30;;;;;;;6.65;1.67;;;;;;;;;;6312697;22;20026;-86
2022/05/22 20:53:57;;;;;;;7.63;2.25;;;;;;;;;;6276463;22;20019;-86
2022/05/22 20:56:49;;;;;;;5.80;1.75;;;;;;;;;;6312557;22;20019;-86
2022/05/22 20:59:21;;;;;;;7.85;1.80;;;;;;;;;;6277420;22;20054;-86
2022/05/22 21:01:51;;;;;;;6.78;1.70;;;;;;;;;;6318134;22;20042;-88
2022/05/22 21:04:21;;;;;;;5.07;1.63;;;;;;;;;;6260110;22;20015;-89
2022/05/22 21:06:49;;;;;;;7.85;1.92;;;;;;;;;;6322090;22;20090;-91
2022/05/22 21:09:23;;;;;;;5.07;1.70;;;;;;;;;;6322127;22;20019;-90
2022/05/22 21:11:53;;;;;;;6.07;2.40;;;;;;;;;;6320341;22;20337;-90
2022/05/22 21:14:27;;;;;;;7.60;1.98;;;;;;;;;;6258894;22;20438;-90
2022/05/22 21:16:59;;;;;;;7.80;2.00;;;;;;;;;;6322100;22;20019;-90
2022/05/22 21:19:27;;;;;;;4.28;1.60;;;;;;;;;;6285199;22;20035;-89
2022/05/22 21:21:55;;;;;;;4.15;2.15;;;;;;;;;;6320433;22;20015;-87
2022/05/22 21:30:17;;;;;;;4.78;1.80;;;;;;;;;;6252730;23;20028;-87
2022/05/22 21:32:45;;;;;;;3.83;1.60;;;;;;;;;;6257053;23;20457;-90
2022/05/22 21:35:13;;;;;;;7.95;1.70;;;;;;;;;;6258070;23;20042;-90
2022/05/22 21:37:47;;;;;;;5.75;1.80;;;;;;;;;;6234107;23;20374;-90
2022/05/22 21:40:15;;;;;;;4.85;2.00;;;;;;;;;;6258024;23;20023;-91
2022/05/22 21:42:44;;;;;;;5.20;1.80;;;;;;;;;;6232622;23;20070;-90
2022/05/22 21:45:38;;;;;;;4.28;1.60;;;;;;;;;;6257919;23;20081;-90
2022/05/22 21:48:07;;;;;;;4.82;1.75;;;;;;;;;;6232146;23;20060;-90
2022/05/22 21:50:35;;;;;;;5.03;1.98;;;;;;;;;;6232536;23;20099;-90
2022/05/22 21:53:03;;;;;;;3.10;1.48;;;;;;;;;;6253827;23;20066;-87
2022/05/22 21:55:36;;;;;;;3.58;1.80;;;;;;;;;;6217403;23;20032;-86
2022/05/22 21:58:04;;;;;;;6.13;2.00;;;;;;;;;;6228004;23;20027;-87
2022/05/22 22:00:33;;;;;;;5.32;2.05;;;;;;;;;;6227601;23;20024;-87
2022/05/22 22:03:02;;;;;;;8.77;2.08;;;;;;;;;;6194547;23;20024;-88
2022/05/22 22:05:35;;;;;;;6.32;1.90;;;;;;;;;;6197081;22;20027;-88
2022/05/22 22:08:03;;;;;;;4.57;2.10;;;;;;;;;;6283843;22;20381;-92
2022/05/22 22:10:32;;;;;;;4.07;2.03;;;;;;;;;;6319993;22;20015;-92
2022/05/22 22:13:05;;;;;;;5.63;1.75;;;;;;;;;;6319086;22;20463;-91
2022/05/22 22:15:33;;;;;;;5.65;2.03;;;;;;;;;;6282667;22;20349;-91
2022/05/22 22:18:01;;;;;;;10.55;1.80;;;;;;;;;;6282246;22;20121;-87
2022/05/22 22:20:29;;;;;;;5.32;1.60;;;;;;;;;;6316215;22;20015;-87
2022/05/22 22:23:02;;;;;;;4.22;1.73;;;;;;;;;;6317058;22;20047;-87
2022/05/22 22:25:31;;;;;;;5.75;1.67;;;;;;;;;;6283437;22;20042;-93
2022/05/22 22:28:07;;;;;;;3.88;1.90;;;;;;;;;;6284405;22;20441;-92
2022/05/22 22:30:43;;;;;;;4.55;1.75;;;;;;;;;;6319324;22;20015;-92
2022/05/22 22:33:13;;;;;;;4.15;1.88;;;;;;;;;;6322325;22;20460;-95
2022/05/22 22:35:41;;;;;;;8.40;2.83;;;;;;;;;;6285956;22;20019;-96
2022/05/22 22:38:10;;;;;;;5.97;2.10;;;;;;;;;;6285580;22;20106;-96
2022/05/22 22:40:39;;;;;;;7.47;2.00;;;;;;;;;;6284418;22;20518;-90
2022/05/22 22:43:31;;;;;;;6.28;1.90;;;;;;;;;;6305250;22;20022;-87
2022/05/22 22:45:59;;;;;;;5.60;1.80;;;;;;;;;;6316608;22;20019;-87
2022/05/22 22:48:52;;;;;;;3.33;2.03;;;;;;;;;;6316184;22;20019;-87
2022/05/22 22:51:21;;;;;;;6.60;2.22;;;;;;;;;;6316929;22;20018;-87
2022/05/22 22:59:28;;;;;;;5.93;1.90;;;;;;;;;;6316452;22;20015;-87
2022/05/22 23:01:56;;;;;;;3.65;1.80;;;;;;;;;;6318348;22;20396;-90
2022/05/22 23:04:25;;;;;;;4.78;1.90;;;;;;;;;;6282748;22;20453;-89
2022/05/22 23:06:55;;;;;;;3.67;1.80;;;;;;;;;;6319984;22;20015;-90
2022/05/22 23:09:24;;;;;;;3.58;1.73;;;;;;;;;;6308203;22;20085;-90
2022/05/22 23:11:54;;;;;;;4.85;1.67;;;;;;;;;;6316856;22;20015;-85
2022/05/22 23:14:24;;;;;;;2.88;1.70;;;;;;;;;;6314155;22;20011;-84
2022/05/22 23:16:57;;;;;;;7.13;2.13;;;;;;;;;;6314888;22;20303;-84
2022/05/22 23:19:34;;;;;;;3.60;2.15;;;;;;;;;;6303634;22;20034;-85
2022/05/22 23:22:01;;;;;;;6.78;2.33;;;;;;;;;;6314020;22;20402;-85
2022/05/22 23:24:29;;;;;;;5.43;2.13;;;;;;;;;;6303698;22;20023;-85
2022/05/22 23:26:58;;;;;;;6.43;2.10;;;;;;;;;;6313785;22;20813;-85
2022/05/22 23:29:29;;;;;;;4.43;2.22;;;;;;;;;;6303679;22;20077;-85
2022/05/22 23:31:57;;;;;;;4.45;1.90;;;;;;;;;;6314321;22;20015;-85
2022/05/22 23:34:25;;;;;;;7.68;2.20;;;;;;;;;;6313977;22;20035;-85
2022/05/22 23:36:53;;;;;;;7.78;2.35;;;;;;;;;;6311940;22;20061;-85
2022/05/22 23:39:32;;;;;;;6.25;1.85;;;;;;;;;;6312945;22;20026;-85
2022/05/22 23:42:04;;;;;;;6.93;1.83;;;;;;;;;;6312976;22;20015;-87
2022/05/22 23:44:33;;;;;;;5.15;1.80;;;;;;;;;;6315005;22;20019;-86
2022/05/22 23:47:05;;;;;;;3.70;1.80;;;;;;;;;;6318063;22;20341;-91
2022/05/22 23:49:33;;;;;;;6.43;2.28;;;;;;;;;;6307621;22;20019;-92
2022/05/22 23:52:09;;;;;;;9.48;2.28;;;;;;;;;;6319076;22;20012;-92
2022/05/22 23:54:46;;;;;;;4.10;1.70;;;;;;;;;;6319358;22;20019;-91
2022/05/22 23:57:37;;;;;;;4.93;1.65;;;;;;;;;;6319718;22;20007;-86
